Evanston, WY (82930)

4:14 PM MST on December 20, 2014 (GMT -0700)
HADS EVANSTON 1E WY US NWS | Change Station
CLOSE
Current Station
Personal Weather Station
Location: Evanston, WY
Elevation: 6825 ft
Nearby Weather Stations
Active Advisory: High Wind Warning Active Notice: Public Information Statement

Elev 6825 ft 41.26 °N, 110.95 °W | Updated 59 minutes ago

Mostly Cloudy
Mostly Cloudy
31 °F
Feels Like 26 °F
N
5
Wind Variable Wind from SSW
Gusts 9.0 mph

Today
High -- | Low -- °F
--% Chance of Precip.
Yesterday
High -- | Low -- °F
Precip. -- in
7:45 AM 4:57 PM
Waning Crescent, 2% visible
Pressure 30.03 in
Visibility 10.0 miles
Clouds Scattered Clouds 700 ft
Mostly Cloudy 1200 ft
Windchill 26 °F
Dew Point 29 °F
Humidity 94%
Rainfall 0.00 in
Snow Depth Not available.
UV 0 out of 12
Pollen .10 out of 12
Air Quality Not available.
Flu Activity Not available.
METAR KEVW 202253Z AUTO 23011KT 10SM SCT007 BKN012 M01/M02 A3001 RMK AO2 SLP169 T10061017

More Conditions Fewer Conditions

Pressure 30.03 in
Visibility 10.0 miles
Clouds Scattered Clouds 700 ft
Mostly Cloudy 1200 ft
Windchill 26 °F
Dew Point 29 °F
Humidity 94%
Rainfall 0.00 in
Snow Depth Not available.
UV 0 out of 12
Pollen .10 out of 12
Air Quality Not available.
Flu Activity Not available.
METAR KEVW 202253Z AUTO 23011KT 10SM SCT007 BKN012 M01/M02 A3001 RMK AO2 SLP169 T10061017

More Conditions Fewer Conditions

10-Day Weather Forecast

Almanac

Astronomy

Dec. 20, 2014 Rise Set
Actual Time
Civil Twilight
Nautical Twilight
Astronomical Twilight
Moon
Length of Visible Light
Length of Day
Tomorrow will be .
, % of the Moon is Illuminated

Today's Extremes

State Highs State Lows

Community

WunderPhotos

Upload Photos

1,779,311 photos uploaded!

WunderBlogs® & News

Nearby

Air Quality

  Air Quality AQ Index Pollutant
Not available.

Snow Depth

Station Depth Elevation

Earthquake Activity

City Distance Mag. Time & Date
Minimum magnitude displayed is 2.5.

Coastal Water Temperatures

Place Temperature

Nearby Weather Stations